Station: Yongala

  Atmospheric Gas Attenuation - ITU Rec 676-11   --------------- db/100km ---------------
Date Time Temp RH % AH g/m3 Dew Point Wind Direction Speed kph Gust kph Barometer mB Rainfall Since 9am 24GHz 47GHz 76GHz 122GHz 134GHz 241GHz
27 09:00 8.2 87 7.29 6.1 4 1013.1 0.1 17.0 25.4 37.2 97.4 87.6 299.9
26 09:00 8.2 87 7.29 6.1 4 1013.1 2 17.0 25.4 37.2 97.4 87.6 299.9
25 09:00 4.6 100 6.62 4.6 33 1013.1 22 15.7 25.3 36.1 94.4 82.4 281.1
24 09:00 8.5 87 7.43 6.4 7 1013.1 0.6 17.3 25.5 37.6 98.6 89.1 305.4
23 09:00 9 91 8.03 7.6 22 1013.1 0.1 18.6 26.4 39.9 104.6 96.8 332.1
22 09:00 10.4 89 8.58 8.6 30 1013.1 0.1 19.7 26.9 41.5 108.8 102.5 352.5
20 09:00 15.2 92 11.94 14 19 1013.1 5 26.7 31.1 53.1 139.9 142.5 492.9
19 09:00 12.4 97 10.6 12 4 1013.1 24 24.0 29.7 49.0 129.0 128.1 442.2
18 09:00 15 84 10.77 12.3 19 1013.1 0 24.2 29.1 48.1 126.6 126.2 435.8
17 09:00 14.5 75 9.33 10.2 33 1013.1 0 21.1 26.9 42.4 111.4 107.2 369.3
16 09:00 16.5 53 7.44 6.9 9 1013.1 0 17.0 23.3 34.1 89.2 80.6 276.4
14 09:00 8.5 99 8.46 8.3 4 1013.1 0 19.5 27.2 42.0 110.2 103.4 355.4
13 09:00 11.5 99 10.23 11.3 9 1013.1 0.4 23.2 29.4 47.9 126.1 124.3 428.6
12 09:00 20 64 11.06 13 15 1013.1 0 24.5 28.0 46.3 121.9 122.1 422.1
11 09:00 17.5 71 10.58 12.2 37 1013.1 0 23.6 28.0 45.8 120.6 119.6 413.1
10 09:00 13.9 69 8.27 8.3 19 1013.1 0.1 18.9 25.3 38.4 100.8 93.9 322.9
09 09:00 9.4 97 8.78 9 19 1013.1 0.8 20.2 27.5 42.8 112.5 106.7 367.0
08 09:00 13.1 93 10.61 12 15 1013.1 0 23.9 29.5 48.6 127.9 127.1 438.7
06 09:00 13.4 76 8.84 9.2 9 1013.1 0 20.1 26.4 41.0 107.6 102.1 351.4
05 09:00 10.9 79 7.86 7.5 0 1013.1 0 18.1 25.5 38.2 100.2 92.1 316.1
04 09:00 8 93 7.69 7 0 1013.1 0 17.9 26.1 38.9 102.1 93.3 319.8
03 09:00 13 66 7.49 6.8 11 1013.1 0 17.3 24.3 35.8 93.7 84.9 291.1
02 09:00 16.4 59 8.23 8.4 11 1013.1 0 18.7 24.6 37.1 97.3 90.5 311.1
31 09:00 8 81 6.7 5 15 1013.1 0 15.8 24.4 34.9 91.2 79.9 272.8
30 09:00 11.9 96 10.17 11.3 9 1013.1 0 23.1 29.1 47.4 124.8 122.7 423.4
29 09:00 12.2 80 8.63 8.9 9 1013.1 0 19.7 26.4 40.7 106.9 100.8 346.9
28 09:00 7.5 93 7.45 6.4 4 1013.1 0 17.4 25.8 38.2 100.1 90.6 310.3
27 09:00 7.5 88 7.05 5.6 0 1013.1 0 16.5 25.2 36.5 95.6 85.1 291.1
26 09:00 8.9 80 7.01 5.7 9 1013.1 0.1 16.4 24.7 35.7 93.5 83.0 284.1
25 09:00 5.5 97 6.82 5.1 0 1013.1 0.2 16.1 25.3 36.5 95.5 84.2 287.5
24 09:00 6 93 6.75 4.9 0 1013.1 3 16.0 25.1 36.0 94.1 82.6 282.3
22 09:00 5.9 99 7.14 5.7 19 1013.1 10 16.8 25.8 37.6 98.6 88.1 301.5
21 09:00 7.5 93 7.45 6.4 4 1013.1 6 17.4 25.8 38.2 100.1 90.6 310.3
20 09:00 7.5 93 7.45 6.4 15 1013.1 5 17.4 25.8 38.2 100.1 90.6 310.3
19 09:00 8.5 87 7.43 6.4 33 1013.1 3 17.3 25.5 37.6 98.6 89.1 305.4
18 09:00 9.4 77 6.97 5.6 9 1013.1 0.2 16.3 24.5 35.3 92.5 82.0 280.4
17 09:00 8.7 88 7.61 6.8 15 1013.1 0 17.7 25.7 38.3 100.3 91.4 313.1
16 09:00 7 100 7.75 7 4 1013.1 0.4 18.1 26.5 39.7 104.1 95.4 326.9
15 09:00 8.5 100 8.54 8.5 11 1013.1 0.8 19.7 27.4 42.3 111.1 104.6 359.3
14 09:00 9.5 93 8.47 8.5 4 1013.1 0.3 19.5 27.0 41.5 108.9 102.2 351.3
13 09:00 10 93 8.74 9 15 1013.1 0.2 20.1 27.3 42.3 111.2 105.3 362.2
12 09:00 9.5 100 9.1 9.5 22 1013.1 3 20.9 28.0 44.2 116.1 111.1 382.4
11 09:00 9 90 7.94 7.4 15 1013.1 0 18.4 26.2 39.5 103.6 95.5 327.8
10 09:00 8.6 89 7.65 6.9 9 1013.1 2 17.8 25.8 38.5 100.9 92.0 315.5
08 09:00 5.1 100 6.85 5.1 9 1013.1 0.6 16.2 25.5 36.8 96.4 85.0 290.4
07 09:00 4 100 6.36 4 30 1013.1 4 15.2 25.0 35.2 92.2 79.4 270.5
06 09:00 5.5 71 4.99 0.6 19 1013.1 0 12.2 22.4 29.1 75.8 59.8 202.1
05 09:00 4 92 5.85 2.8 17 1013.1 0.1 14.1 24.1 33.1 86.5 72.4 246.0
04 09:00 6.9 79 6.08 3.5 15 1013.1 0 14.5 23.7 32.9 85.8 72.8 247.7
03 09:00 7.8 77 6.29 4 0 1013.1 0 14.9 23.8 33.3 87.1 74.7 254.5
02 09:00 6.4 78 5.82 2.9 0 1013.1 0 13.9 23.5 32.0 83.6 69.8 237.3
01 09:00 7.8 78 6.37 4.3 4 1013.1 0.1 15.1 24.0 33.6 87.9 75.7 258.2
31 09:00 5 100 6.8 5 0 1013.1 0.1 16.1 25.5 36.6 95.9 84.4 288.3
30 09:00 4.5 100 6.58 4.5 4 1013.1 0.2 15.7 25.2 35.9 94.1 81.9 279.5
29 09:00 3.7 97 6.05 3.2 0 1013.1 0.1 14.5 24.6 34.1 89.1 75.4 256.6
28 09:00 3 92 5.48 1.8 4 1013.1 0.2 13.3 23.8 32.0 83.6 68.3 231.5
27 09:00 7.5 100 8.01 7.5 0 1013.1 0.1 18.6 26.8 40.6 106.4 98.4 337.6
26 09:00 6.8 82 6.27 3.9 0 1013.1 0 14.9 24.1 33.7 88.0 75.4 256.8
24 09:00 6 93 6.75 4.9 0 1013.1 0 16.0 25.1 36.0 94.1 82.6 282.3
23 09:00 3.3 100 6.07 3.3 0 1013.1 0.1 14.6 24.7 34.3 89.8 76.1 258.9
21 09:00 6.3 96 7.11 5.7 9 1013.1 0.1 16.7 25.6 37.3 97.8 87.3 298.5
20 09:00 7.4 88 7 5.5 6 1013.1 0.1 16.4 25.1 36.4 95.2 84.5 289.1
19 09:00 9.1 93 8.25 8.1 15 1013.1 0.1 19.1 26.7 40.7 106.9 99.7 342.3
18 09:00 8.4 77 6.53 4.7 15 1013.1 0 15.4 24.1 34.0 89.0 77.2 263.6
17 09:00 5.4 97 6.77 5 0 1013.1 0.1 16.0 25.3 36.3 95.1 83.6 285.4
16 09:00 4.9 94 6.35 4 0 1013.1 0.1 15.1 24.7 34.8 91.0 78.3 267.0
15 09:00 2.6 100 5.79 2.6 0 1013.1 0.2 14.0 24.4 33.5 87.4 72.9 247.6
14 09:00 5.5 100 7.03 5.5 0 1013.1 0.2 16.6 25.7 37.4 97.9 87.1 297.7
13 09:00 8 96 7.94 7.4 9 1013.1 0.4 18.4 26.5 40.0 104.9 96.8 332.0
11 09:00 6.4 100 7.46 6.4 9 1013.1 7 17.5 26.2 38.8 101.6 92.0 315.2
10 09:00 8.2 78 6.53 4.7 0 1013.1 0 15.4 24.1 34.1 89.2 77.4 264.2
08 09:00 1.4 100 5.34 1.4 0 1013.1 0.1 13.1 24.0 32.1 83.7 67.8 229.6
05 09:00 8.6 91 7.82 7.2 9 1013.1 0.4 18.2 26.1 39.2 102.8 94.4 323.6
04 09:00 6.5 96 7.2 5.9 6 1013.1 1 16.9 25.7 37.6 98.6 88.3 302.1
03 09:00 8 93 7.69 7 4 1013.1 0.4 17.9 26.1 38.9 102.1 93.3 319.8
02 09:00 6.8 96 7.35 6.2 4 1013.1 0 17.2 25.9 38.1 99.9 90.0 308.2
01 09:00 9.5 66 6.01 3.5 15 1013.1 0 14.2 23.0 31.5 82.3 69.5 236.6
30 09:00 5.3 80 5.55 2.2 9 1013.1 0 13.4 23.3 31.4 81.9 67.2 228.1
28 09:00 5.6 85 6.01 3.3 0 1013.1 0.1 14.4 24.0 33.1 86.5 73.0 248.5
27 09:00 6 85 6.17 3.7 0 1013.1 0.2 14.7 24.1 33.6 87.8 74.8 254.8
26 09:00 3 100 5.95 3 2 1013.1 0.1 14.4 24.6 34.0 88.8 74.7 254.0
25 09:00 5 93 6.32 3.9 0 1013.1 0.1 15.1 24.6 34.6 90.6 77.8 265.2
21 09:00 8.4 100 8.49 8.4 26 1013.1 10 19.6 27.3 42.1 110.7 104.0 357.3
19 09:00 9.5 74 6.74 5.2 22 1013.1 0 15.8 24.1 34.4 89.9 78.9 269.5
18 09:00 7 86 6.67 4.8 2 1013.1 0 15.7 24.7 35.2 92.1 80.5 274.9
17 09:00 4.5 100 6.58 4.5 0 1013.1 0.1 15.7 25.2 35.9 94.1 81.9 279.5
15 09:00 9.6 82 7.51 6.7 6 1013.1 0.1 17.4 25.3 37.4 98.1 88.9 304.8
14 09:00 7.4 93 7.4 6.3 6 1013.1 2 17.3 25.8 38.0 99.6 90.0 308.2
13 09:00 9.3 72 6.47 4.5 6 1013.1 0 15.2 23.7 33.4 87.3 75.6 257.9
12 09:00 5 84 5.71 2.6 0 1013.1 0 13.8 23.6 32.1 83.9 69.6 236.4
11 09:00 3.2 87 5.25 1.2 0 1013.1 0 12.8 23.4 31.0 80.9 65.0 220.1
10 09:00 0.5 100 5.02 0.5 0 1013.1 0.1 12.4 23.7 31.1 81.1 64.2 216.7
09 09:00 4.1 92 5.89 2.9 0 1013.1 0.1 14.2 24.2 33.2 86.9 72.8 247.6
08 09:00 4.4 94 6.14 3.5 9 1013.1 0.1 14.7 24.5 34.1 89.3 76.0 258.6
07 09:00 7.4 90 7.16 5.9 11 1013.1 0.1 16.8 25.4 37.0 97.0 86.7 296.7
06 09:00 5.9 94 6.78 5 0 1013.1 0.1 16.0 25.2 36.1 94.6 83.2 284.1
05 09:00 3 100 5.95 3 0 1013.1 0 14.4 24.6 34.0 88.8 74.7 254.0
03 09:00 9.1 99 8.79 8.9 15 1013.1 0.4 20.2 27.6 43.1 113.1 107.3 368.9
02 09:00 8.4 96 8.15 7.8 9 1013.1 1 18.9 26.7 40.7 106.8 99.2 340.5
31 09:00 9.7 91 8.39 8.3 15 1013.1 0.2 19.3 26.8 41.0 107.7 100.8 346.5

Last Refresh: 27-Sep-2020 12:45:28

Most of the information presented on this site is sourced from the Bureau of Meteorology.  Copyright in all material sourced from the Bureau of Meteorology resides with the Commonwealth of Australia.